• Join FlightAware (Why Join?)
  • Login
  • US Flag 
01:09PM EDT


 

Airport Tracker/Info


-or-


 

Live Flight TrackerFlight Track Log ✈ N290CD ✈ 09-Aug-2013 ✈ KJNX - KILM

Flight Track Log - Related Links

Times and Time Zones

All times are in EDT time to prevent confusion due to time zone crossing. See the N290CD flight status page for this flight to view local times or setup timezone preferences in your user account.

Time Position Orientation Groundspeed Altitude Reporting Facility
EDT Latitude Longitude Course Direction KTS MPH feet Rate Location/Type
02:06PM 35.4603 -78.3717 160° South 105 121 1,500  Level Washington Center
02:07PM 35.4417 -78.3633 160° South 112 129 1,900 600 Climbing Washington Center
02:07PM 35.4253 -78.3575 164° South 111 128 2,200 480 Climbing Washington Center
02:08PM 35.3983 -78.3464 161° South 105 121 2,700 540 Climbing Washington Center
02:09PM 35.3672 -78.3328 160° South 107 123 3,300 540 Climbing Washington Center
02:10PM 35.3403 -78.3242 165° South 110 127 3,800 540 Climbing Washington Center
02:11PM 35.3094 -78.3103 160° South 108 124 4,400 540 Climbing Washington Center
02:12PM 35.2844 -78.3019 165° South 106 122 4,900 420 Climbing Washington Center
02:13PM 35.2533 -78.2933 167° South 106 122 5,300 300 Climbing Washington Center
02:14PM 35.2244 -78.2794 159° South 114 131 5,600 300 Climbing Washington Center
02:15PM 35.1894 -78.2631 159° South 120 138 6,000 300 Climbing Washington Center
02:16PM 35.1583 -78.2544 167° South 124 143 6,300 240 Climbing Washington Center
02:17PM 35.1233 -78.2381 159° South 125 144 6,600 240 Climbing Washington Center
02:19PM 35.0802 -78.2184 160° South  Level FlightAware Approximate
02:26PM 34.8428 -78.1184 162° South  Level FlightAware Approximate
02:27PM 34.8086 -78.1051 162° South  Level FlightAware Approximate
02:28PM 34.7745 -78.0918 162° South  Level FlightAware Approximate
02:29PM 34.7403 -78.0786 162° South  Level FlightAware Approximate
02:30PM 34.7062 -78.0653 162° South  Level FlightAware Approximate
02:31PM 34.6720 -78.0521 162° South  Level FlightAware Approximate
02:32PM 34.6378 -78.0391 163° South  Level FlightAware Approximate
02:33PM 34.6035 -78.0263 163° South  Level FlightAware Approximate
02:34PM 34.5692 -78.0135 163° South  Level FlightAware Approximate
02:35PM 34.5350 -78.0006 163° South  Level FlightAware Approximate
02:36PM 34.5011 -77.9865 161° South  Level FlightAware Approximate
02:37PM 34.4672 -77.9724 161° South  Level FlightAware Approximate
02:38PM 34.4333 -77.9583 161° South  Level FlightAware Approximate
02:39PM 34.3994 -77.9441 161° South  Level FlightAware Approximate
02:40PM 34.3655 -77.9300 161° South  Level FlightAware Approximate
02:41PM 34.3315 -77.9162 168° South  Level FlightAware Approximate
02:42PM 34.2964 -77.9074 168° South  Level FlightAware Approximate
02:43PM 34.2667 -77.9000 168° South  Level FlightAware Approximate
02:44PM 34.2706 -77.9026 168° South  Level Estimated
02:45PM 34.2667 -77.9000 168° South  Level FlightAware Approximate
02:46PM 34.2706 -77.9026 168° South  Level Estimated